Time;durP1;ratioP1;P1;durP2;ratioP2;P2;SDS_P1;SDS_P2;PMS_P1;PMS_P2;Temp;Humidity;BMP_temperature;BMP_pressure;BME280_temperature;BME280_humidity;BME280_pressure;Samples;Min_cycle;Max_cycle;Signal;HPM_P1;HPM_P2
2023/04/13 00:01:03;;;;;;;0.53;0.37;;;4.90;99.90;;;;;;6189803;23;20102;-94
2023/04/13 00:03:32;;;;;;;0.35;0.25;;;4.90;99.90;;;;;;6189353;23;20028;-93
2023/04/13 00:05:58;;;;;;;0.43;0.40;;;4.90;99.90;;;;;;6189993;23;20108;-93
2023/04/13 00:08:24;;;;;;;0.35;0.35;;;4.90;99.90;;;;;;6189328;23;20048;-94
2023/04/13 00:10:53;;;;;;;0.87;0.50;;;4.90;99.90;;;;;;6189882;23;20016;-93
2023/04/13 00:13:26;;;;;;;0.40;0.40;;;5.00;99.90;;;;;;6189717;23;20021;-93
2023/04/13 00:15:59;;;;;;;0.45;0.45;;;5.00;99.90;;;;;;6189881;23;20016;-94
2023/04/13 00:18:27;;;;;;;0.38;0.38;;;6.30;99.90;;;;;;6165810;23;20024;-92
2023/04/13 00:20:55;;;;;;;0.88;0.38;;;5.20;99.90;;;;;;6165026;23;20023;-94
2023/04/13 00:23:24;;;;;;;0.38;0.35;;;5.00;99.90;;;;;;6190258;23;20020;-93
2023/04/13 00:25:50;;;;;;;0.50;0.38;;;5.20;99.90;;;;;;6214987;23;20017;-94
2023/04/13 00:28:23;;;;;;;0.53;0.53;;;5.10;99.90;;;;;;6189744;23;20115;-94
2023/04/13 00:30:59;;;;;;;0.45;0.45;;;5.20;99.90;;;;;;6191499;23;20512;-93
2023/04/13 00:33:28;;;;;;;0.28;0.25;;;5.40;99.90;;;;;;6165449;23;20055;-94
2023/04/13 00:35:56;;;;;;;0.65;0.50;;;5.20;99.90;;;;;;6164927;23;20070;-94
2023/04/13 00:38:22;;;;;;;0.22;0.22;;;5.20;99.90;;;;;;6214931;23;20052;-93
2023/04/13 00:40:51;;;;;;;1.33;0.40;;;5.30;99.90;;;;;;6164732;23;20017;-93
2023/04/13 00:43:20;;;;;;;0.30;0.30;;;5.30;99.90;;;;;;6165831;23;20487;-93
2023/04/13 00:45:51;;;;;;;0.10;0.10;;;5.40;99.90;;;;;;6190140;23;20021;-93
2023/04/13 00:48:20;;;;;;;0.95;0.43;;;5.30;99.90;;;;;;6165755;23;20020;-95
2023/04/13 00:50:49;;;;;;;0.20;0.20;;;5.30;99.90;;;;;;6191701;23;20035;-93
2023/04/13 00:53:17;;;;;;;0.35;0.30;;;5.40;99.90;;;;;;6190987;23;20021;-95
2023/04/13 00:55:53;;;;;;;;;;;;;;;;;;;;;
2023/04/13 00:58:20;;;;;;;0.15;0.15;;;5.50;99.90;;;;;;6214939;23;20397;-91
2023/04/13 01:00:45;;;;;;;0.68;0.30;;;5.50;99.90;;;;;;6214474;23;20020;-91
2023/04/13 01:03:11;;;;;;;0.40;0.40;;;5.60;99.90;;;;;;6189771;23;20392;-90
2023/04/13 01:06:20;;;;;;;0.00;0.00;;;5.60;99.90;;;;;;6214375;23;20025;-91
2023/04/13 01:08:52;;;;;;;0.15;0.15;;;5.50;99.90;;;;;;6099490;23;20022;-91
2023/04/13 01:11:35;;;;;;;0.28;0.13;;;5.40;99.90;;;;;;6175671;23;20518;-95
2023/04/13 01:14:12;;;;;;;0.38;0.20;;;5.40;99.90;;;;;;6189871;23;20413;-91
2023/04/13 01:16:56;;;;;;;0.15;0.15;;;5.50;99.90;;;;;;6189005;23;20795;-91
2023/04/13 01:19:53;;;;;;;0.85;0.30;;;5.50;99.90;;;;;;6189150;23;20021;-90
2023/04/13 01:22:23;;;;;;;0.10;0.10;;;5.40;99.90;;;;;;6188922;23;20059;-93
2023/04/13 01:25:17;;;;;;;0.22;0.22;;;5.50;99.90;;;;;;6213648;23;20453;-90
2023/04/13 01:27:55;;;;;;;0.05;0.05;;;5.40;99.90;;;;;;6213682;23;20512;-90
2023/04/13 01:30:24;;;;;;;0.82;0.82;;;5.40;99.90;;;;;;6214115;23;20023;-94
2023/04/13 01:32:51;;;;;;;0.70;0.50;;;5.30;99.90;;;;;;6213930;23;20032;-92
2023/04/13 01:35:19;;;;;;;0.05;0.05;;;5.30;99.90;;;;;;6188135;23;20027;-90
2023/04/13 01:37:46;;;;;;;0.17;0.17;;;5.30;99.90;;;;;;6213661;23;20017;-91
2023/04/13 01:40:12;;;;;;;0.22;0.20;;;5.30;99.90;;;;;;6214235;23;20020;-90
2023/04/13 01:42:45;;;;;;;0.22;0.22;;;5.20;99.90;;;;;;6188106;23;20020;-90
2023/04/13 01:45:21;;;;;;;0.30;0.30;;;5.20;99.90;;;;;;6213911;23;20023;-90
2023/04/13 01:48:04;;;;;;;0.20;0.20;;;5.20;99.90;;;;;;6188671;23;20017;-91
2023/04/13 01:50:56;;;;;;;0.20;0.10;;;5.20;99.90;;;;;;6188660;23;20065;-90
2023/04/13 01:53:27;;;;;;;0.25;0.17;;;5.20;99.90;;;;;;6176237;23;20020;-91
2023/04/13 01:56:02;;;;;;;0.10;0.10;;;5.20;99.90;;;;;;6189157;23;20099;-91
2023/04/13 01:58:32;;;;;;;0.38;0.28;;;5.10;99.90;;;;;;6189213;23;20095;-91
2023/04/13 02:01:06;;;;;;;0.20;0.10;;;5.10;99.90;;;;;;6214509;23;20013;-90
2023/04/13 02:03:37;;;;;;;0.15;0.15;;;5.20;99.90;;;;;;6189976;23;20095;-91
2023/04/13 02:06:03;;;;;;;0.60;0.00;;;5.20;99.90;;;;;;6188806;23;20053;-90
2023/04/13 02:08:35;;;;;;;0.30;0.15;;;5.20;99.90;;;;;;6188515;23;20075;-90
2023/04/13 02:11:02;;;;;;;0.13;0.10;;;5.20;99.90;;;;;;6190290;23;20020;-92
2023/04/13 02:13:31;;;;;;;0.38;0.35;;;5.10;99.90;;;;;;6213036;23;20021;-91
2023/04/13 02:15:57;;;;;;;0.32;0.08;;;5.20;99.90;;;;;;6189342;23;20439;-90
2023/04/13 02:18:24;;;;;;;0.00;0.00;;;5.20;99.90;;;;;;6188395;23;20080;-90
2023/04/13 02:21:08;;;;;;;0.00;0.00;;;5.20;99.90;;;;;;6213103;23;20023;-91
2023/04/13 02:23:39;;;;;;;1.00;0.10;;;5.20;99.90;;;;;;6212957;23;20022;-90
2023/04/13 02:26:12;;;;;;;0.38;0.20;;;5.50;99.90;;;;;;6188492;23;20079;-90
2023/04/13 02:28:39;;;;;;;0.00;0.00;;;5.20;99.90;;;;;;6213349;23;20071;-90
2023/04/13 02:31:05;;;;;;;0.00;0.00;;;5.20;99.90;;;;;;6188932;23;20016;-90
2023/04/13 02:33:34;;;;;;;0.00;0.00;;;5.20;99.90;;;;;;6162390;23;20024;-90
2023/04/13 02:36:02;;;;;;;0.45;0.15;;;5.30;99.90;;;;;;6187883;23;20023;-90
2023/04/13 02:38:28;;;;;;;0.20;0.20;;;5.20;99.90;;;;;;6139206;23;20026;-90
2023/04/13 02:40:59;;;;;;;0.10;0.10;;;5.20;99.90;;;;;;6163083;23;20013;-90
2023/04/13 02:43:25;;;;;;;0.10;0.10;;;5.20;99.90;;;;;;6163972;23;20059;-79
2023/04/13 02:45:51;;;;;;;1.08;0.15;;;5.20;99.90;;;;;;6214966;23;20329;-79
2023/04/13 02:48:18;;;;;;;1.08;0.28;;;5.20;99.90;;;;;;6213510;23;20116;-81
2023/04/13 02:50:45;;;;;;;1.25;0.00;;;5.20;99.90;;;;;;6163822;23;20008;-80
2023/04/13 02:53:11;;;;;;;0.00;0.00;;;5.20;99.90;;;;;;6214077;23;20023;-79
2023/04/13 02:55:37;;;;;;;0.00;0.00;;;5.10;99.90;;;;;;6188421;23;20021;-79
2023/04/13 02:58:05;;;;;;;0.10;0.10;;;5.10;99.90;;;;;;6215322;23;20094;-79
2023/04/13 03:00:31;;;;;;;0.00;0.00;;;5.10;99.90;;;;;;6213562;23;20013;-80
2023/04/13 03:02:57;;;;;;;;;;;5.20;99.90;;;;;;6213498;23;20405;-80
2023/04/13 03:05:23;;;;;;;0.10;0.10;;;5.20;99.90;;;;;;6215138;23;19958;-80
2023/04/13 03:07:49;;;;;;;0.47;0.30;;;5.20;99.90;;;;;;6213304;23;20091;-80
2023/04/13 03:10:15;;;;;;;0.00;0.00;;;5.20;99.90;;;;;;6213295;23;20028;-80
2023/04/13 03:12:40;;;;;;;0.10;0.10;;;5.20;99.90;;;;;;6138261;23;20066;-80
2023/04/13 03:15:09;;;;;;;0.00;0.00;;;5.20;99.90;;;;;;6188618;23;20090;-80
2023/04/13 03:17:39;;;;;;;0.20;0.20;;;5.20;99.90;;;;;;6213144;23;20056;-83
2023/04/13 03:20:11;;;;;;;0.10;0.10;;;5.20;99.90;;;;;;6214793;23;20453;-80
2023/04/13 03:22:38;;;;;;;0.00;0.00;;;5.20;99.90;;;;;;6213142;23;20060;-80
2023/04/13 03:25:05;;;;;;;0.82;0.20;;;5.20;99.90;;;;;;6214906;23;20017;-80
2023/04/13 03:27:31;;;;;;;0.05;0.00;;;5.30;99.90;;;;;;6188463;23;20115;-80
2023/04/13 03:29:57;;;;;;;0.00;0.00;;;5.30;99.90;;;;;;6213022;23;20456;-80
2023/04/13 03:32:22;;;;;;;0.10;0.10;;;5.30;99.90;;;;;;6213506;23;20017;-80
2023/04/13 03:34:48;;;;;;;0.10;0.10;;;5.40;99.90;;;;;;6188471;23;20023;-80
2023/04/13 03:37:14;;;;;;;0.43;0.10;;;5.30;99.90;;;;;;6193441;23;20055;-80
2023/04/13 03:39:40;;;;;;;0.10;0.10;;;5.30;99.90;;;;;;6192962;23;20425;-81
2023/04/13 03:42:06;;;;;;;0.20;0.13;;;5.30;99.90;;;;;;6217834;23;20012;-81
2023/04/13 03:44:32;;;;;;;0.10;0.10;;;5.30;99.90;;;;;;6193550;23;20012;-80
2023/04/13 03:46:58;;;;;;;0.07;0.00;;;5.30;99.90;;;;;;6244458;23;20313;-80
2023/04/13 03:49:23;;;;;;;0.03;0.00;;;5.30;99.90;;;;;;6193287;23;20340;-80
2023/04/13 03:51:49;;;;;;;0.13;0.13;;;5.30;99.90;;;;;;6244832;23;20348;-81
2023/04/13 03:54:15;;;;;;;0.10;0.10;;;5.30;99.90;;;;;;6244934;23;20024;-80
2023/04/13 03:56:41;;;;;;;0.27;0.27;;;5.60;99.90;;;;;;6217868;23;20229;-82
2023/04/13 03:59:07;;;;;;;0.30;0.00;;;5.30;99.90;;;;;;6193215;23;20024;-80
2023/04/13 04:01:32;;;;;;;0.10;0.10;;;5.30;99.90;;;;;;6192978;23;20024;-80
2023/04/13 04:03:58;;;;;;;0.30;0.10;;;5.30;99.90;;;;;;6217549;23;20016;-81
2023/04/13 04:06:25;;;;;;;0.10;0.10;;;5.30;99.90;;;;;;6245002;23;20328;-80
2023/04/13 04:08:51;;;;;;;0.08;0.08;;;5.40;99.90;;;;;;6217718;23;20043;-81
2023/04/13 04:11:17;;;;;;;0.07;0.07;;;5.40;99.90;;;;;;6193319;23;20463;-80
2023/04/13 04:13:43;;;;;;;0.47;0.13;;;5.40;99.90;;;;;;6167753;23;20016;-82
2023/04/13 04:16:10;;;;;;;0.10;0.00;;;5.40;99.90;;;;;;6193133;23;20021;-80
2023/04/13 04:18:36;;;;;;;0.28;0.03;;;5.40;99.90;;;;;;6218662;23;20047;-80
2023/04/13 04:21:03;;;;;;;0.13;0.13;;;5.40;99.90;;;;;;6192474;23;20016;-80
2023/04/13 04:23:29;;;;;;;0.10;0.10;;;5.40;99.90;;;;;;6219826;23;20344;-81
2023/04/13 04:25:58;;;;;;;0.10;0.10;;;4.40;99.90;;;;;;6246615;23;20016;-80
2023/04/13 04:28:24;;;;;;;0.13;0.13;;;5.40;99.90;;;;;;6220011;23;20513;-80
2023/04/13 04:30:52;;;;;;;0.25;0.15;;;5.40;99.90;;;;;;6246468;23;20064;-81
2023/04/13 04:33:22;;;;;;;0.20;0.00;;;5.30;99.90;;;;;;6195009;23;20023;-81
2023/04/13 04:35:50;;;;;;;0.10;0.10;;;5.30;99.90;;;;;;6219164;23;20344;-81
2023/04/13 04:38:21;;;;;;;0.00;0.00;;;5.40;99.90;;;;;;6220111;23;20051;-80
2023/04/13 04:40:49;;;;;;;0.20;0.17;;;5.30;99.90;;;;;;6246103;23;20023;-83
2023/04/13 04:43:15;;;;;;;0.65;0.10;;;5.30;99.90;;;;;;6246630;23;20023;-81
2023/04/13 04:45:42;;;;;;;0.00;0.00;;;5.30;99.90;;;;;;6220162;23;20016;-80
2023/04/13 04:48:10;;;;;;;0.10;0.10;;;5.30;99.90;;;;;;6219446;23;20520;-81
2023/04/13 04:50:37;;;;;;;0.00;0.00;;;5.30;99.90;;;;;;6219961;23;20405;-81
2023/04/13 04:53:05;;;;;;;0.00;0.00;;;5.30;99.90;;;;;;6246281;23;20094;-80
2023/04/13 04:55:32;;;;;;;1.25;0.52;;;5.30;99.90;;;;;;6219364;23;20475;-81
2023/04/13 04:57:58;;;;;;;0.43;0.13;;;5.30;99.90;;;;;;6219339;23;20070;-80
2023/04/13 05:00:25;;;;;;;0.53;0.10;;;5.30;99.90;;;;;;6219323;23;20016;-81
2023/04/13 05:02:51;;;;;;;0.00;0.00;;;5.30;99.90;;;;;;6219358;23;20460;-81
2023/04/13 05:05:17;;;;;;;1.02;0.38;;;5.30;99.90;;;;;;6194824;23;20016;-80
2023/04/13 05:07:43;;;;;;;0.20;0.10;;;5.30;99.90;;;;;;6194780;23;20332;-81
2023/04/13 05:10:09;;;;;;;0.55;0.10;;;5.40;99.90;;;;;;6194065;23;20243;-81
2023/04/13 05:12:35;;;;;;;0.00;0.00;;;5.40;99.90;;;;;;6220008;23;20087;-81
2023/04/13 05:15:01;;;;;;;0.30;0.30;;;5.40;99.90;;;;;;6219120;23;20400;-80
2023/04/13 05:17:27;;;;;;;0.20;0.20;;;5.40;99.90;;;;;;6219656;23;20170;-80
2023/04/13 05:19:53;;;;;;;0.33;0.13;;;5.40;99.90;;;;;;6219192;23;20046;-81
2023/04/13 05:22:19;;;;;;;0.80;0.53;;;5.40;99.90;;;;;;6219621;23;20020;-81
2023/04/13 05:24:45;;;;;;;0.30;0.10;;;5.40;99.90;;;;;;6218920;23;20027;-80
2023/04/13 05:27:12;;;;;;;0.03;0.03;;;5.40;99.90;;;;;;6194071;23;20336;-79
2023/04/13 05:29:39;;;;;;;0.13;0.00;;;5.40;99.90;;;;;;6194647;23;20034;-82
2023/04/13 05:32:04;;;;;;;;;;;5.40;99.90;;;;;;6194085;23;20016;-83
2023/04/13 05:34:32;;;;;;;0.25;0.10;;;5.50;99.90;;;;;;6193597;23;19922;-82
2023/04/13 05:36:58;;;;;;;0.00;0.00;;;5.50;99.90;;;;;;6194097;23;20043;-81
2023/04/13 05:39:24;;;;;;;0.47;0.32;;;5.50;99.90;;;;;;6219453;23;20551;-82
2023/04/13 05:41:50;;;;;;;0.00;0.00;;;5.60;99.90;;;;;;6219330;23;20008;-82
2023/04/13 05:44:16;;;;;;;0.05;0.00;;;5.70;99.90;;;;;;6219295;23;20020;-82
2023/04/13 05:46:42;;;;;;;0.77;0.10;;;5.60;99.90;;;;;;6219411;23;20098;-83
2023/04/13 05:49:08;;;;;;;1.23;0.40;;;5.60;99.90;;;;;;6219373;23;20031;-83
2023/04/13 05:51:34;;;;;;;0.53;0.03;;;5.70;99.90;;;;;;6245605;23;20012;-81
2023/04/13 05:54:01;;;;;;;0.20;0.20;;;5.90;99.90;;;;;;6218838;23;20020;-81
2023/04/13 05:56:28;;;;;;;0.55;0.13;;;6.10;99.90;;;;;;6219082;23;20020;-82
2023/04/13 05:58:54;;;;;;;0.28;0.28;;;6.20;99.90;;;;;;6219607;23;20023;-82
2023/04/13 06:01:22;;;;;;;0.65;0.52;;;6.30;99.90;;;;;;6194055;23;20026;-83
2023/04/13 06:03:48;;;;;;;0.00;0.00;;;6.30;99.90;;;;;;6194772;23;20024;-82
2023/04/13 06:06:16;;;;;;;0.57;0.30;;;6.50;99.90;;;;;;6194369;23;20465;-82
2023/04/13 06:08:42;;;;;;;0.60;0.10;;;6.70;99.90;;;;;;6219768;23;20020;-82
2023/04/13 06:11:08;;;;;;;0.10;0.10;;;6.80;99.90;;;;;;6218950;23;20031;-82
2023/04/13 06:13:34;;;;;;;0.17;0.17;;;6.80;99.90;;;;;;6194083;23;20024;-82
2023/04/13 06:16:00;;;;;;;0.10;0.10;;;6.80;99.90;;;;;;6245475;23;20336;-82
2023/04/13 06:18:26;;;;;;;0.95;0.30;;;6.80;99.90;;;;;;6219053;23;20016;-82
2023/04/13 06:20:52;;;;;;;0.10;0.10;;;6.60;99.90;;;;;;6218398;23;20055;-82
2023/04/13 06:23:18;;;;;;;0.20;0.15;;;6.50;99.90;;;;;;6193737;23;20020;-81
2023/04/13 06:25:44;;;;;;;0.17;0.17;;;6.40;99.90;;;;;;6191944;23;20020;-80
2023/04/13 06:28:13;;;;;;;;;;;6.30;99.90;;;;;;6219031;23;20020;-80
2023/04/13 06:30:39;;;;;;;0.10;0.00;;;6.30;99.90;;;;;;6243985;23;19915;-80
2023/04/13 06:33:05;;;;;;;0.30;0.30;;;6.20;99.90;;;;;;6218761;23;20018;-80
2023/04/13 06:35:32;;;;;;;0.67;0.10;;;6.20;99.90;;;;;;6193840;23;20024;-81
2023/04/13 06:37:59;;;;;;;;;;;6.40;99.90;;;;;;6246217;23;20038;-83
2023/04/13 06:40:26;;;;;;;0.22;0.10;;;6.70;99.90;;;;;;6218143;23;20385;-81
2023/04/13 06:42:53;;;;;;;0.20;0.15;;;6.70;99.90;;;;;;6245765;23;20020;-81
2023/04/13 06:45:20;;;;;;;0.30;0.22;;;6.70;99.90;;;;;;6243957;23;20031;-81
2023/04/13 06:47:46;;;;;;;0.20;0.20;;;6.70;99.90;;;;;;6218701;23;20023;-81
2023/04/13 06:50:15;;;;;;;0.10;0.10;;;6.60;99.90;;;;;;6245150;23;20031;-82
2023/04/13 06:52:43;;;;;;;1.50;0.40;;;6.60;99.90;;;;;;6218604;23;20104;-81
2023/04/13 06:55:09;;;;;;;0.43;0.43;;;6.60;99.90;;;;;;6217646;23;20012;-82
2023/04/13 06:57:34;;;;;;;2.10;0.13;;;6.40;99.90;;;;;;6218397;23;20028;-81
2023/04/13 07:00:06;;;;;;;0.57;0.57;;;7.70;99.90;;;;;;6218284;23;20016;-81
2023/04/13 07:02:32;;;;;;;1.95;0.43;;;6.90;99.90;;;;;;6145018;23;20022;-81
2023/04/13 07:04:57;;;;;;;0.63;0.30;;;7.10;99.90;;;;;;6218274;23;20094;-81
2023/04/13 07:07:23;;;;;;;0.80;0.50;;;7.40;99.90;;;;;;6192884;23;20027;-81
2023/04/13 07:09:49;;;;;;;1.13;0.43;;;7.40;99.90;;;;;;6245420;23;20016;-81
2023/04/13 07:12:15;;;;;;;0.10;0.10;;;7.40;99.90;;;;;;6193276;23;20016;-81
2023/04/13 07:14:41;;;;;;;0.25;0.25;;;7.60;99.90;;;;;;6193089;23;20058;-81
2023/04/13 07:17:07;;;;;;;0.10;0.10;;;7.80;99.90;;;;;;6217871;23;20051;-82
2023/04/13 07:19:35;;;;;;;1.35;0.30;;;7.80;99.90;;;;;;6193592;23;20012;-82
2023/04/13 07:22:03;;;;;;;0.57;0.22;;;7.70;99.90;;;;;;6217988;23;20020;-81
2023/04/13 07:24:29;;;;;;;1.08;0.55;;;7.60;99.90;;;;;;6217455;23;20091;-80
2023/04/13 07:26:56;;;;;;;0.17;0.00;;;7.50;99.90;;;;;;6244853;23;20016;-81
2023/04/13 07:29:22;;;;;;;0.93;0.40;;;7.40;99.90;;;;;;6244517;23;20098;-80
2023/04/13 07:31:49;;;;;;;0.55;0.40;;;7.40;99.90;;;;;;6193352;23;20062;-80
2023/04/13 07:34:15;;;;;;;0.95;0.43;;;7.30;99.90;;;;;;6192969;23;20515;-81
2023/04/13 07:36:41;;;;;;;;;;;7.30;99.90;;;;;;6212736;23;20016;-81
2023/04/13 07:39:08;;;;;;;0.10;0.10;;;7.30;99.90;;;;;;6213208;23;19920;-81
2023/04/13 07:41:35;;;;;;;0.80;0.35;;;7.40;99.90;;;;;;6212920;23;20040;-81
2023/04/13 07:44:02;;;;;;;;;;;7.70;99.90;;;;;;6188913;23;20024;-80
2023/04/13 07:46:28;;;;;;;0.08;0.03;;;7.70;99.90;;;;;;6188037;23;19926;-80
2023/04/13 07:48:56;;;;;;;0.57;0.57;;;7.90;99.90;;;;;;6214909;23;20021;-81
2023/04/13 07:51:22;;;;;;;0.70;0.40;;;8.80;99.90;;;;;;6214221;23;20023;-79
2023/04/13 07:53:51;;;;;;;1.30;0.20;;;8.30;99.90;;;;;;6214760;23;20099;-82
2023/04/13 07:56:16;;;;;;;0.20;0.20;;;8.30;99.90;;;;;;6214123;23;20445;-83
2023/04/13 07:58:42;;;;;;;0.00;0.00;;;8.30;99.90;;;;;;6212362;23;20016;-83
2023/04/13 08:01:08;;;;;;;0.20;0.20;;;8.20;99.90;;;;;;6214129;23;20016;-82
2023/04/13 08:03:34;;;;;;;0.20;0.20;;;8.10;99.90;;;;;;6187301;23;20051;-81
2023/04/13 08:06:00;;;;;;;0.00;0.00;;;8.00;99.90;;;;;;6212808;23;20060;-81
2023/04/13 08:08:26;;;;;;;1.05;0.30;;;7.80;99.90;;;;;;6187831;23;20020;-85
2023/04/13 08:10:55;;;;;;;0.40;0.10;;;7.70;99.90;;;;;;6213252;23;20019;-82
2023/04/13 08:13:22;;;;;;;0.40;0.35;;;7.50;99.90;;;;;;6187928;23;20016;-82
2023/04/13 08:15:48;;;;;;;0.10;0.10;;;7.50;99.90;;;;;;6213144;23;20019;-82
2023/04/13 08:18:14;;;;;;;2.63;0.20;;;7.40;99.90;;;;;;6214842;23;20056;-81
2023/04/13 08:20:40;;;;;;;0.20;0.20;;;7.50;99.90;;;;;;6212840;23;20020;-81
2023/04/13 08:23:06;;;;;;;0.10;0.10;;;7.50;99.90;;;;;;6187474;23;20475;-82
2023/04/13 08:25:37;;;;;;;0.43;0.37;;;7.60;99.90;;;;;;6187875;23;20052;-82
2023/04/13 08:28:02;;;;;;;0.20;0.20;;;7.60;99.90;;;;;;6213351;23;20024;-82
2023/04/13 08:30:31;;;;;;;0.33;0.33;;;7.50;99.90;;;;;;6212756;23;20023;-81
2023/04/13 08:33:00;;;;;;;0.47;0.47;;;7.50;99.90;;;;;;6212847;23;20028;-82
2023/04/13 08:35:26;;;;;;;0.20;0.17;;;7.40;99.90;;;;;;6189538;23;20024;-82
2023/04/13 08:37:52;;;;;;;0.50;0.23;;;6.90;99.90;;;;;;6194938;23;20024;-82
2023/04/13 08:40:19;;;;;;;0.32;0.28;;;7.20;99.90;;;;;;6192680;23;20019;-83
2023/04/13 08:42:48;;;;;;;0.35;0.13;;;7.10;99.90;;;;;;6218117;23;20012;-83
2023/04/13 08:45:15;;;;;;;0.00;0.00;;;7.10;99.90;;;;;;6218113;23;20019;-82
2023/04/13 08:47:41;;;;;;;1.08;0.28;;;7.10;99.90;;;;;;6193086;23;20020;-82
2023/04/13 08:50:08;;;;;;;0.40;0.30;;;7.10;99.90;;;;;;6218283;23;20023;-83
2023/04/13 08:52:35;;;;;;;0.00;0.00;;;7.20;99.90;;;;;;6192321;23;20016;-82
2023/04/13 08:55:04;;;;;;;0.50;0.50;;;7.20;99.90;;;;;;6192981;23;20013;-82
2023/04/13 08:57:31;;;;;;;0.45;0.10;;;7.40;99.90;;;;;;6192277;23;20106;-83
2023/04/13 08:59:58;;;;;;;0.00;0.00;;;7.50;99.90;;;;;;6244821;23;20027;-81
2023/04/13 09:02:30;;;;;;;0.28;0.10;;;7.70;99.90;;;;;;6218047;23;20020;-84
2023/04/13 09:04:59;;;;;;;0.17;0.17;;;7.80;99.90;;;;;;6193376;23;20026;-80
2023/04/13 09:07:31;;;;;;;0.13;0.10;;;7.80;99.90;;;;;;6218188;23;20095;-82
2023/04/13 09:09:58;;;;;;;0.20;0.20;;;7.70;99.90;;;;;;6195472;23;20491;-81
2023/04/13 09:12:27;;;;;;;;;;;7.70;99.90;;;;;;6195459;23;20379;-81
2023/04/13 09:14:54;;;;;;;0.00;0.00;;;7.50;99.90;;;;;;6246773;23;19916;-81
2023/04/13 09:17:27;;;;;;;0.30;0.03;;;7.40;99.90;;;;;;6219438;23;20023;-81
2023/04/13 09:20:09;;;;;;;0.52;0.43;;;7.30;99.90;;;;;;6220047;23;20042;-81
2023/04/13 09:22:35;;;;;;;0.00;0.00;;;7.30;99.90;;;;;;6193912;23;20419;-81
2023/04/13 09:25:03;;;;;;;0.00;0.00;;;7.30;99.90;;;;;;6246295;23;20502;-80
2023/04/13 09:27:29;;;;;;;0.00;0.00;;;7.30;99.90;;;;;;6245988;23;20047;-82
2023/04/13 09:29:55;;;;;;;0.00;0.00;;;7.60;99.90;;;;;;6219589;23;20020;-81
2023/04/13 09:32:26;;;;;;;0.00;0.00;;;8.10;99.90;;;;;;6219853;23;20381;-81
2023/04/13 09:35:03;;;;;;;0.10;0.10;;;8.60;99.90;;;;;;6219014;23;20012;-81
2023/04/13 09:37:31;;;;;;;0.08;0.05;;;8.70;99.90;;;;;;6194418;23;20471;-81
2023/04/13 09:40:10;;;;;;;0.03;0.03;;;8.60;99.90;;;;;;6194787;23;20084;-81
2023/04/13 09:42:38;;;;;;;0.00;0.00;;;8.30;99.90;;;;;;6194768;23;20020;-82
2023/04/13 09:45:05;;;;;;;0.10;0.10;;;8.10;99.90;;;;;;6194498;23;20058;-81
2023/04/13 09:47:39;;;;;;;0.00;0.00;;;7.90;99.90;;;;;;6219000;23;20070;-81
2023/04/13 09:50:22;;;;;;;0.00;0.00;;;7.90;99.90;;;;;;6220137;23;20095;-81
2023/04/13 09:53:03;;;;;;;0.00;0.00;;;8.30;99.90;;;;;;6219298;23;20477;-83
2023/04/13 09:55:30;;;;;;;0.25;0.13;;;8.90;99.90;;;;;;6194329;23;20099;-82
2023/04/13 09:57:56;;;;;;;0.20;0.20;;;9.40;99.90;;;;;;6194369;23;20024;-82
2023/04/13 10:00:22;;;;;;;0.10;0.00;;;9.60;99.90;;;;;;6219383;23;20016;-83
2023/04/13 10:02:49;;;;;;;0.17;0.10;;;9.60;99.90;;;;;;6218856;23;20078;-83
2023/04/13 10:05:16;;;;;;;0.15;0.15;;;9.50;99.90;;;;;;6218858;23;20071;-83
2023/04/13 10:07:45;;;;;;;0.20;0.10;;;9.20;99.90;;;;;;6194202;23;20020;-82
2023/04/13 10:10:12;;;;;;;0.10;0.10;;;9.10;99.90;;;;;;6219065;23;20016;-83
2023/04/13 10:12:44;;;;;;;0.10;0.10;;;8.90;99.90;;;;;;6218590;23;20024;-83
2023/04/13 10:15:26;;;;;;;0.00;0.00;;;8.80;99.90;;;;;;6193987;23;20012;-82
2023/04/13 10:17:54;;;;;;;0.00;0.00;;;8.60;99.90;;;;;;6218760;23;20027;-82
2023/04/13 10:20:21;;;;;;;0.03;0.03;;;8.40;99.90;;;;;;6193546;23;20024;-82
2023/04/13 10:22:47;;;;;;;0.00;0.00;;;8.10;99.90;;;;;;6218174;23;20016;-82
2023/04/13 10:25:14;;;;;;;0.00;0.00;;;7.90;99.90;;;;;;6245958;23;20138;-81
2023/04/13 10:27:40;;;;;;;0.00;0.00;;;7.80;99.90;;;;;;6218825;23;20012;-82
2023/04/13 10:30:15;;;;;;;;;;;7.90;99.90;;;;;;6245604;23;20020;-82
2023/04/13 10:32:41;;;;;;;0.10;0.00;;;8.00;99.90;;;;;;6218659;23;19916;-82
2023/04/13 10:35:11;;;;;;;0.10;0.10;;;8.10;99.90;;;;;;6245778;23;20384;-82
2023/04/13 10:37:41;;;;;;;0.25;0.00;;;8.00;99.90;;;;;;6213343;23;20027;-83
2023/04/13 10:40:09;;;;;;;0.52;0.10;;;8.00;99.90;;;;;;6214018;23;20514;-82
2023/04/13 10:42:55;;;;;;;0.10;0.10;;;7.90;99.90;;;;;;6188994;23;20016;-81
2023/04/13 10:45:24;;;;;;;0.10;0.10;;;7.90;99.90;;;;;;6213706;23;20025;-83
2023/04/13 10:47:51;;;;;;;0.00;0.00;;;7.90;99.90;;;;;;6212555;23;20128;-82
2023/04/13 10:50:21;;;;;;;;;;;7.80;99.90;;;;;;6213716;23;20349;-83
2023/04/13 10:53:04;;;;;;;0.00;0.00;;;7.60;99.90;;;;;;6213247;23;19966;-83
2023/04/13 10:55:31;;;;;;;0.00;0.00;;;7.50;99.90;;;;;;6188516;23;20020;-82
2023/04/13 10:57:58;;;;;;;0.20;0.10;;;7.40;99.90;;;;;;6187811;23;20020;-83
2023/04/13 11:00:27;;;;;;;0.28;0.17;;;7.60;99.90;;;;;;6188688;23;20020;-83
2023/04/13 11:02:57;;;;;;;0.05;0.00;;;7.70;99.90;;;;;;6163711;23;20318;-81
2023/04/13 11:05:28;;;;;;;1.75;0.30;;;7.80;99.90;;;;;;6213789;23;20054;-82
2023/04/13 11:07:54;;;;;;;0.25;0.03;;;7.80;99.90;;;;;;6213493;23;20369;-82
2023/04/13 11:10:25;;;;;;;0.30;0.13;;;7.90;99.90;;;;;;6188637;23;20016;-82
2023/04/13 11:12:52;;;;;;;0.00;0.00;;;8.00;99.90;;;;;;6187924;23;20059;-83
2023/04/13 11:15:26;;;;;;;0.10;0.10;;;8.10;99.90;;;;;;6213573;23;20531;-83
2023/04/13 11:17:56;;;;;;;0.10;0.10;;;8.30;99.90;;;;;;6214541;23;20048;-83
2023/04/13 11:20:33;;;;;;;0.00;0.00;;;8.50;99.90;;;;;;6213135;23;20323;-83
2023/04/13 11:23:02;;;;;;;0.05;0.05;;;8.70;99.90;;;;;;6187908;23;20321;-82
2023/04/13 11:25:28;;;;;;;0.20;0.00;;;9.00;99.90;;;;;;6213577;23;20021;-83
2023/04/13 11:27:59;;;;;;;0.10;0.10;;;9.20;99.90;;;;;;6187566;23;20047;-83
2023/04/13 11:30:25;;;;;;;1.77;0.10;;;9.30;99.90;;;;;;6188924;23;20024;-83
2023/04/13 11:32:52;;;;;;;0.10;0.10;;;9.40;99.90;;;;;;6212749;23;20038;-83
2023/04/13 11:35:19;;;;;;;0.10;0.05;;;9.70;99.90;;;;;;6188958;23;20444;-82
2023/04/13 11:37:47;;;;;;;0.38;0.15;;;9.40;99.90;;;;;;6218596;23;20024;-84
2023/04/13 11:40:16;;;;;;;0.00;0.00;;;9.30;99.90;;;;;;6193260;23;20017;-82
2023/04/13 11:42:44;;;;;;;0.20;0.20;;;9.30;99.90;;;;;;6192799;23;20027;-83
2023/04/13 11:45:12;;;;;;;0.10;0.10;;;9.20;99.90;;;;;;6218005;23;20099;-84
2023/04/13 11:47:38;;;;;;;0.52;0.30;;;9.20;99.90;;;;;;6218445;23;20077;-82
2023/04/13 11:50:05;;;;;;;0.10;0.10;;;9.20;99.90;;;;;;6193191;23;20031;-83
2023/04/13 11:52:32;;;;;;;;;;;9.30;99.90;;;;;;6193894;23;20095;-82
2023/04/13 11:54:59;;;;;;;0.10;0.10;;;9.30;99.90;;;;;;6217547;23;19919;-83
2023/04/13 11:57:28;;;;;;;0.08;0.08;;;9.90;99.90;;;;;;6218018;23;20027;-82
2023/04/13 11:59:54;;;;;;;0.10;0.10;;;10.00;99.90;;;;;;6216498;23;20027;-85
2023/04/13 12:02:27;;;;;;;0.00;0.00;;;9.90;99.90;;;;;;6194019;23;20368;-84
2023/04/13 12:04:54;;;;;;;0.57;0.15;;;9.80;99.90;;;;;;6218398;23;20063;-87
2023/04/13 12:07:20;;;;;;;0.08;0.00;;;9.70;99.90;;;;;;6218900;23;20027;-83
2023/04/13 12:09:49;;;;;;;0.30;0.30;;;9.60;99.90;;;;;;6219045;23;20020;-83
2023/04/13 12:12:23;;;;;;;0.10;0.10;;;9.50;99.90;;;;;;6193679;23;20016;-84
2023/04/13 12:14:54;;;;;;;0.10;0.10;;;8.70;99.90;;;;;;6193450;23;20078;-83
2023/04/13 12:17:20;;;;;;;0.00;0.00;;;9.50;99.90;;;;;;6218647;23;20382;-82
2023/04/13 12:19:52;;;;;;;0.10;0.10;;;9.60;99.90;;;;;;6218278;23;20016;-83
2023/04/13 12:22:21;;;;;;;0.10;0.10;;;9.70;99.90;;;;;;6219445;23;20012;-82
2023/04/13 12:24:47;;;;;;;0.35;0.25;;;9.70;99.90;;;;;;6218787;23;20100;-82
2023/04/13 12:27:12;;;;;;;0.10;0.10;;;9.60;99.90;;;;;;6193281;23;20059;-82
2023/04/13 12:29:39;;;;;;;0.67;0.10;;;9.60;99.90;;;;;;6168654;23;20318;-82
2023/04/13 12:32:15;;;;;;;;;;;9.50;99.90;;;;;;6193973;23;20019;-83
2023/04/13 12:34:42;;;;;;;0.20;0.20;;;9.40;99.90;;;;;;6218700;23;19915;-82
2023/04/13 12:37:09;;;;;;;0.10;0.00;;;9.30;99.90;;;;;;6193065;23;20059;-83
2023/04/13 12:39:34;;;;;;;;;;;9.20;99.90;;;;;;6245979;23;20020;-83
2023/04/13 12:42:00;;;;;;;0.17;0.17;;;9.20;99.90;;;;;;6218341;23;20282;-83
2023/04/13 12:44:26;;;;;;;0.10;0.10;;;9.20;99.90;;;;;;6220354;23;20086;-82
2023/04/13 12:46:51;;;;;;;0.10;0.00;;;9.20;99.90;;;;;;6170895;23;20016;-83
2023/04/13 12:49:17;;;;;;;0.30;0.30;;;9.20;99.90;;;;;;6220256;23;20020;-83
2023/04/13 12:51:43;;;;;;;0.00;0.00;;;9.20;99.90;;;;;;6195576;23;20317;-83
2023/04/13 12:54:12;;;;;;;0.00;0.00;;;9.30;99.90;;;;;;6220186;23;20012;-83
2023/04/13 12:56:41;;;;;;;0.28;0.28;;;9.40;99.90;;;;;;6247197;23;20016;-83
2023/04/13 12:59:07;;;;;;;0.00;0.00;;;9.50;99.90;;;;;;6170315;23;20098;-83
2023/04/13 13:01:36;;;;;;;0.30;0.20;;;9.60;99.90;;;;;;6220251;23;20058;-83
2023/04/13 13:04:05;;;;;;;0.00;0.00;;;9.70;99.90;;;;;;6170632;23;20020;-83
2023/04/13 13:06:32;;;;;;;0.10;0.10;;;9.90;99.90;;;;;;6195154;23;20394;-83